createdAt,value
2018-07-07T00:00:47.855Z,19.73
2018-07-07T00:01:47.817Z,19.62
2018-07-07T00:02:47.789Z,19.59
2018-07-07T00:03:47.748Z,19.64
2018-07-07T00:04:47.721Z,19.52
2018-07-07T00:05:47.713Z,19.56
2018-07-07T00:06:47.671Z,19.58
2018-07-07T00:07:47.617Z,19.62
2018-07-07T00:08:47.592Z,19.59
2018-07-07T00:09:47.558Z,19.58
2018-07-07T00:10:47.523Z,19.73
2018-07-07T00:11:47.497Z,19.73
2018-07-07T00:12:47.475Z,19.63
2018-07-07T00:13:47.440Z,19.71
2018-07-07T00:14:47.394Z,19.69
2018-07-07T00:15:47.363Z,19.56
2018-07-07T00:16:47.344Z,19.64
2018-07-07T00:17:47.306Z,19.58
2018-07-07T00:18:47.271Z,19.59
2018-07-07T00:19:47.243Z,19.63
2018-07-07T00:20:47.207Z,19.64
2018-07-07T00:21:47.177Z,19.49
2018-07-07T00:22:47.144Z,19.49
2018-07-07T00:23:47.139Z,19.49
2018-07-07T00:24:47.082Z,19.48
2018-07-07T00:25:47.089Z,19.37
2018-07-07T00:26:47.033Z,19.37
2018-07-07T00:27:46.986Z,19.37
2018-07-07T00:28:46.960Z,19.39
2018-07-07T00:29:46.919Z,19.33
2018-07-07T00:30:46.892Z,19.31
2018-07-07T00:31:46.856Z,19.36
2018-07-07T00:32:46.830Z,19.33
2018-07-07T00:33:46.796Z,19.36
2018-07-07T00:34:46.777Z,19.34
2018-07-07T00:35:47.063Z,19.31
2018-07-07T00:36:46.702Z,19.33
2018-07-07T00:37:46.682Z,19.34
2018-07-07T00:38:46.673Z,19.36
2018-07-07T00:39:46.604Z,19.37
2018-07-07T00:40:46.574Z,19.36
2018-07-07T00:41:46.546Z,19.37
2018-07-07T00:42:46.514Z,19.37
2018-07-07T00:43:46.480Z,19.47
2018-07-07T00:44:46.450Z,19.48
2018-07-07T00:45:46.417Z,19.51
2018-07-07T00:46:46.382Z,19.49
2018-07-07T00:47:46.351Z,19.45
2018-07-07T00:48:46.320Z,19.36
2018-07-07T00:49:46.301Z,19.33
2018-07-07T00:50:46.256Z,19.29
2018-07-07T00:51:46.227Z,19.22
2018-07-07T00:52:46.211Z,19.26
2018-07-07T00:53:46.172Z,19.19
2018-07-07T00:54:46.131Z,19.21
2018-07-07T00:55:46.102Z,19.18
2018-07-07T00:56:46.067Z,19.18
2018-07-07T00:57:46.032Z,19.19
2018-07-07T00:58:46.009Z,19.16
2018-07-07T00:59:45.976Z,19.19
2018-07-07T01:00:45.978Z,19.18
2018-07-07T01:01:45.904Z,19.15
2018-07-07T01:02:45.885Z,19.16
2018-07-07T01:03:45.849Z,19.15
2018-07-07T01:04:45.809Z,19.08
2018-07-07T01:05:46.054Z,19.11
2018-07-07T01:06:45.779Z,19.14
2018-07-07T01:07:45.727Z,19.07
2018-07-07T01:08:45.683Z,19.00
2018-07-07T01:09:45.665Z,19.04
2018-07-07T01:10:45.633Z,19.08
2018-07-07T01:11:45.593Z,19.02
2018-07-07T01:12:45.579Z,18.99
2018-07-07T01:13:45.531Z,19.02
2018-07-07T01:14:45.491Z,19.04
2018-07-07T01:15:45.462Z,19.07
2018-07-07T01:16:45.436Z,19.00
2018-07-07T01:17:45.394Z,19.00
2018-07-07T01:18:45.364Z,19.08
2018-07-07T01:19:45.332Z,18.96
2018-07-07T01:20:45.317Z,19.00
2018-07-07T01:21:45.721Z,18.95
2018-07-07T01:22:45.245Z,18.96
2018-07-07T01:23:45.205Z,18.83
2018-07-07T01:24:45.177Z,18.77
2018-07-07T01:25:45.143Z,18.77
2018-07-07T01:26:45.111Z,18.80
2018-07-07T01:27:45.098Z,18.78
2018-07-07T01:28:45.051Z,18.81
2018-07-07T01:29:45.020Z,18.78
2018-07-07T01:30:44.993Z,18.73
2018-07-07T01:31:44.950Z,18.60
2018-07-07T01:32:44.924Z,18.63
2018-07-07T01:33:44.895Z,18.66
2018-07-07T01:34:44.888Z,18.66
2018-07-07T01:35:44.827Z,18.66
2018-07-07T01:36:44.808Z,18.60
2018-07-07T01:37:44.775Z,18.60
2018-07-07T01:38:44.749Z,18.59
2018-07-07T01:39:44.697Z,18.50
2018-07-07T01:40:44.668Z,18.50
2018-07-07T01:41:44.633Z,18.49
2018-07-07T01:42:44.651Z,18.43
2018-07-07T01:43:44.583Z,18.44
2018-07-07T01:44:44.544Z,18.45
2018-07-07T01:45:44.518Z,18.41
2018-07-07T01:46:44.482Z,18.37
2018-07-07T01:47:44.439Z,18.34
2018-07-07T01:48:44.476Z,18.37
2018-07-07T01:49:44.676Z,18.31
2018-07-07T01:50:44.346Z,18.35
2018-07-07T01:51:44.315Z,18.29
2018-07-07T01:52:44.284Z,18.34
2018-07-07T01:53:44.253Z,18.29
2018-07-07T01:54:44.227Z,18.25
2018-07-07T01:55:44.184Z,18.26
2018-07-07T01:56:44.157Z,18.11
2018-07-07T01:57:44.138Z,18.08
2018-07-07T01:58:44.088Z,18.05
2018-07-07T01:59:44.058Z,18.07
2018-07-07T02:00:44.028Z,18.03
2018-07-07T02:01:44.024Z,18.07
2018-07-07T02:02:43.966Z,18.01
2018-07-07T02:03:43.937Z,17.89
2018-07-07T02:04:43.920Z,17.86
2018-07-07T02:05:43.872Z,17.87
2018-07-07T02:06:43.831Z,17.87
2018-07-07T02:07:43.811Z,17.76
2018-07-07T02:08:43.776Z,17.78
2018-07-07T02:09:43.737Z,17.79
2018-07-07T02:10:43.702Z,17.74
2018-07-07T02:11:43.685Z,17.82
2018-07-07T02:12:43.646Z,17.70
2018-07-07T02:13:43.608Z,17.72
2018-07-07T02:14:43.576Z,17.70
2018-07-07T02:15:43.542Z,17.70
2018-07-07T02:16:43.520Z,17.64
2018-07-07T02:17:43.479Z,17.64
2018-07-07T02:18:43.458Z,17.60
2018-07-07T02:19:43.417Z,17.67
2018-07-07T02:20:43.386Z,17.64
2018-07-07T02:21:43.356Z,17.63
2018-07-07T02:22:43.359Z,17.65
2018-07-07T02:23:43.320Z,17.63
2018-07-07T02:24:43.302Z,17.68
2018-07-07T02:25:43.843Z,17.72
2018-07-07T02:26:43.187Z,17.72
2018-07-07T02:27:43.159Z,17.71
2018-07-07T02:28:43.128Z,17.74
2018-07-07T02:29:43.105Z,17.80
2018-07-07T02:30:43.076Z,17.85
2018-07-07T02:31:43.027Z,17.76
2018-07-07T02:32:43.002Z,17.78
2018-07-07T02:33:42.964Z,17.70
2018-07-07T02:34:42.936Z,17.82
2018-07-07T02:35:42.956Z,17.71
2018-07-07T02:36:42.879Z,17.70
2018-07-07T02:37:42.839Z,17.72
2018-07-07T02:38:42.801Z,17.67
2018-07-07T02:39:42.799Z,17.72
2018-07-07T02:40:42.766Z,17.70
2018-07-07T02:41:42.720Z,17.79
2018-07-07T02:42:42.672Z,17.78
2018-07-07T02:43:42.657Z,17.67
2018-07-07T02:44:43.331Z,17.68
2018-07-07T02:45:42.617Z,17.64
2018-07-07T02:46:42.636Z,17.63
2018-07-07T02:47:42.574Z,17.63
2018-07-07T02:48:42.480Z,17.63
2018-07-07T02:49:42.645Z,17.65
2018-07-07T02:50:42.429Z,17.60
2018-07-07T02:51:42.381Z,17.63
2018-07-07T02:52:42.645Z,17.54
2018-07-07T02:53:42.332Z,17.63
2018-07-07T02:54:42.284Z,17.64
2018-07-07T02:55:42.647Z,17.64
2018-07-07T02:56:42.223Z,17.56
2018-07-07T02:57:42.212Z,17.60
2018-07-07T02:58:42.161Z,17.59
2018-07-07T02:59:42.127Z,17.59
2018-07-07T03:00:42.093Z,17.60
2018-07-07T03:01:42.063Z,17.51
2018-07-07T03:02:42.028Z,17.54
2018-07-07T03:03:41.994Z,17.51
2018-07-07T03:04:41.966Z,17.49
2018-07-07T03:05:41.930Z,17.41
2018-07-07T03:06:41.925Z,17.49
2018-07-07T03:07:41.912Z,17.38
2018-07-07T03:08:41.832Z,17.31
2018-07-07T03:09:41.804Z,17.31
2018-07-07T03:10:41.775Z,17.26
2018-07-07T03:11:41.743Z,17.23
2018-07-07T03:12:41.719Z,17.14
2018-07-07T03:13:41.669Z,17.14
2018-07-07T03:14:41.641Z,17.15
2018-07-07T03:15:41.637Z,17.19
2018-07-07T03:16:41.581Z,17.16
2018-07-07T03:17:41.543Z,17.22
2018-07-07T03:18:41.512Z,17.24
2018-07-07T03:19:41.476Z,17.24
2018-07-07T03:20:41.451Z,17.29
2018-07-07T03:21:41.411Z,17.20
2018-07-07T03:22:41.381Z,17.30
2018-07-07T03:23:41.348Z,17.30
2018-07-07T03:24:41.616Z,17.30
2018-07-07T03:25:41.295Z,17.38
2018-07-07T03:26:41.259Z,17.39
2018-07-07T03:27:41.224Z,17.42
2018-07-07T03:28:41.189Z,17.42
2018-07-07T03:29:41.153Z,17.49
2018-07-07T03:30:41.118Z,17.33
2018-07-07T03:31:41.103Z,17.46
2018-07-07T03:32:41.058Z,17.36
2018-07-07T03:33:41.026Z,17.38
2018-07-07T03:34:41.027Z,17.42
2018-07-07T03:35:40.977Z,17.38
2018-07-07T03:36:40.929Z,17.42
2018-07-07T03:37:40.930Z,17.38
2018-07-07T03:38:40.864Z,17.27
2018-07-07T03:39:40.836Z,17.27
2018-07-07T03:40:41.285Z,17.20
2018-07-07T03:41:40.762Z,17.23
2018-07-07T03:42:40.753Z,17.22
2018-07-07T03:43:40.731Z,17.11
2018-07-07T03:44:40.676Z,17.14
2018-07-07T03:45:41.285Z,17.14
2018-07-07T03:46:40.600Z,17.11
2018-07-07T03:47:40.575Z,17.05
2018-07-07T03:48:40.566Z,17.15
2018-07-07T03:49:40.507Z,17.08
2018-07-07T03:50:40.477Z,17.11
2018-07-07T03:51:40.448Z,16.94
2018-07-07T03:52:40.408Z,16.94
2018-07-07T03:53:40.380Z,16.90
2018-07-07T03:54:40.341Z,16.91
2018-07-07T03:55:40.309Z,16.93
2018-07-07T03:56:40.277Z,16.83
2018-07-07T03:57:40.263Z,16.90
2018-07-07T03:58:40.210Z,16.83
2018-07-07T03:59:40.178Z,16.93
2018-07-07T04:00:40.149Z,16.96
2018-07-07T04:01:40.112Z,16.93
2018-07-07T04:02:40.081Z,16.97
2018-07-07T04:03:40.051Z,16.93
2018-07-07T04:04:40.017Z,16.97
2018-07-07T04:05:39.987Z,16.97
2018-07-07T04:06:39.948Z,17.01
2018-07-07T04:07:39.922Z,16.97
2018-07-07T04:08:39.921Z,16.94
2018-07-07T04:09:39.855Z,16.91
2018-07-07T04:10:39.822Z,16.94
2018-07-07T04:11:39.789Z,16.94
2018-07-07T04:12:39.777Z,16.97
2018-07-07T04:13:39.725Z,16.87
2018-07-07T04:14:39.695Z,16.79
2018-07-07T04:15:39.657Z,16.76
2018-07-07T04:16:39.637Z,16.76
2018-07-07T04:17:39.673Z,16.84
2018-07-07T04:18:39.584Z,16.93
2018-07-07T04:19:39.554Z,16.94
2018-07-07T04:20:39.515Z,17.11
2018-07-07T04:21:39.487Z,17.05
2018-07-07T04:22:39.617Z,17.11
2018-07-07T04:23:39.400Z,17.16
2018-07-07T04:24:39.368Z,17.23
2018-07-07T04:25:39.344Z,17.24
2018-07-07T04:26:39.300Z,17.26
2018-07-07T04:27:39.723Z,17.23
2018-07-07T04:28:39.248Z,17.27
2018-07-07T04:29:39.209Z,17.36
2018-07-07T04:30:39.928Z,17.45
2018-07-07T04:31:39.137Z,17.48
2018-07-07T04:32:39.107Z,17.51
2018-07-07T04:33:39.871Z,17.52
2018-07-07T04:34:39.039Z,17.54
2018-07-07T04:35:39.044Z,17.64
2018-07-07T04:36:38.974Z,17.68
2018-07-07T04:37:38.942Z,17.70
2018-07-07T04:38:38.915Z,17.80
2018-07-07T04:39:38.876Z,17.87
2018-07-07T04:40:38.843Z,17.80
2018-07-07T04:41:38.818Z,17.79
2018-07-07T04:42:39.041Z,17.83
2018-07-07T04:43:38.753Z,17.89
2018-07-07T04:44:38.720Z,17.86
2018-07-07T04:45:38.695Z,17.92
2018-07-07T04:46:38.654Z,18.01
2018-07-07T04:47:38.622Z,18.05
2018-07-07T04:48:38.591Z,18.04
2018-07-07T04:49:38.570Z,18.00
2018-07-07T04:50:38.525Z,18.03
2018-07-07T04:51:38.494Z,18.05
2018-07-07T04:52:38.465Z,18.11
2018-07-07T04:53:38.429Z,18.22
2018-07-07T04:54:38.396Z,18.20
2018-07-07T04:55:38.367Z,18.31
2018-07-07T04:56:38.333Z,18.37
2018-07-07T04:57:38.302Z,18.40
2018-07-07T04:58:38.267Z,18.47
2018-07-07T04:59:38.238Z,18.49
2018-07-07T05:00:38.205Z,18.52
2018-07-07T05:01:38.172Z,18.53
2018-07-07T05:02:38.142Z,18.58
2018-07-07T05:03:38.107Z,18.73
2018-07-07T05:04:38.136Z,18.78
2018-07-07T05:05:38.043Z,18.89
2018-07-07T05:06:38.012Z,18.96
2018-07-07T05:07:37.982Z,19.16
2018-07-07T05:08:37.949Z,19.22
2018-07-07T05:09:37.920Z,19.30
2018-07-07T05:10:37.884Z,19.36
2018-07-07T05:11:37.857Z,19.52
2018-07-07T05:12:37.823Z,19.55
2018-07-07T05:13:37.791Z,19.51
2018-07-07T05:14:37.757Z,19.58
2018-07-07T05:15:37.773Z,19.52
2018-07-07T05:16:37.697Z,19.62
2018-07-07T05:17:37.665Z,19.58
2018-07-07T05:18:37.634Z,19.71
2018-07-07T05:19:37.601Z,19.74
2018-07-07T05:20:37.571Z,19.76
2018-07-07T05:21:37.539Z,19.86
2018-07-07T05:22:37.506Z,20.00
2018-07-07T05:23:37.470Z,20.09
2018-07-07T05:24:37.445Z,20.25
2018-07-07T05:25:37.412Z,20.32
2018-07-07T05:26:37.382Z,20.55
2018-07-07T05:27:37.352Z,20.65
2018-07-07T05:28:37.319Z,20.78
2018-07-07T05:29:37.289Z,20.82
2018-07-07T05:30:38.160Z,20.87
2018-07-07T05:31:37.225Z,20.84
2018-07-07T05:32:37.198Z,20.88
2018-07-07T05:33:37.165Z,20.90
2018-07-07T05:34:37.137Z,20.75
2018-07-07T05:35:37.103Z,20.82
2018-07-07T05:36:37.071Z,20.81
2018-07-07T05:37:37.042Z,20.77
2018-07-07T05:38:37.010Z,20.78
2018-07-07T05:39:36.973Z,20.93
2018-07-07T05:40:36.950Z,21.02
2018-07-07T05:41:36.920Z,20.96
2018-07-07T05:42:36.889Z,21.05
2018-07-07T05:43:36.855Z,21.02
2018-07-07T05:44:36.827Z,21.05
2018-07-07T05:45:36.795Z,21.18
2018-07-07T05:46:36.766Z,21.24
2018-07-07T05:47:36.756Z,21.30
2018-07-07T05:48:36.704Z,21.36
2018-07-07T05:49:36.672Z,21.45
2018-07-07T05:50:36.642Z,21.57
2018-07-07T05:51:36.613Z,21.64
2018-07-07T05:52:36.582Z,21.57
2018-07-07T05:53:36.556Z,21.58
2018-07-07T05:54:36.516Z,21.67
2018-07-07T05:55:36.490Z,21.57
2018-07-07T05:56:36.460Z,21.57
2018-07-07T05:57:36.430Z,21.39
2018-07-07T05:58:36.414Z,21.42
2018-07-07T05:59:36.366Z,21.39
2018-07-07T06:00:36.333Z,21.43
2018-07-07T06:01:36.307Z,21.33
2018-07-07T06:02:36.277Z,21.25
2018-07-07T06:03:36.246Z,21.39
2018-07-07T06:04:36.219Z,21.39
2018-07-07T06:05:36.186Z,21.33
2018-07-07T06:06:36.195Z,21.40
2018-07-07T06:07:36.124Z,21.43
2018-07-07T06:08:36.097Z,21.58
2018-07-07T06:09:36.064Z,21.52
2018-07-07T06:10:36.030Z,21.58
2018-07-07T06:11:36.005Z,21.72
2018-07-07T06:12:35.974Z,21.67
2018-07-07T06:13:36.066Z,21.70
2018-07-07T06:14:35.911Z,21.73
2018-07-07T06:15:35.877Z,21.83
2018-07-07T06:16:35.863Z,21.92
2018-07-07T06:17:35.819Z,21.85
2018-07-07T06:18:35.787Z,21.88
2018-07-07T06:19:35.761Z,22.08
2018-07-07T06:20:35.732Z,22.10
2018-07-07T06:21:35.701Z,22.07
2018-07-07T06:22:35.692Z,22.29
2018-07-07T06:23:35.640Z,22.25
2018-07-07T06:24:35.607Z,22.41
2018-07-07T06:25:35.583Z,22.55
2018-07-07T06:26:35.580Z,22.65
2018-07-07T06:27:35.521Z,22.75
2018-07-07T06:28:35.492Z,22.65
2018-07-07T06:29:35.469Z,22.72
2018-07-07T06:30:35.431Z,22.66
2018-07-07T06:31:35.403Z,22.70
2018-07-07T06:32:35.373Z,22.88
2018-07-07T06:33:35.342Z,22.91
2018-07-07T06:34:35.314Z,22.93
2018-07-07T06:35:35.289Z,23.06
2018-07-07T06:36:35.250Z,23.18
2018-07-07T06:37:35.223Z,23.31
2018-07-07T06:38:35.194Z,23.54
2018-07-07T06:39:35.163Z,23.54
2018-07-07T06:40:35.134Z,23.69
2018-07-07T06:41:35.104Z,23.73
2018-07-07T06:42:35.073Z,23.81
2018-07-07T06:43:35.049Z,24.05
2018-07-07T06:44:35.017Z,24.30
2018-07-07T06:45:35.071Z,24.33
2018-07-07T06:46:34.956Z,24.35
2018-07-07T06:47:34.931Z,24.54
2018-07-07T06:48:34.903Z,24.69
2018-07-07T06:49:34.874Z,24.73
2018-07-07T06:50:34.845Z,24.81
2018-07-07T06:51:34.817Z,24.80
2018-07-07T06:52:34.786Z,24.88
2018-07-07T06:53:34.774Z,24.99
2018-07-07T06:54:34.726Z,25.07
2018-07-07T06:55:34.700Z,25.25
2018-07-07T06:56:34.666Z,25.44
2018-07-07T06:57:34.648Z,25.59
2018-07-07T06:58:34.619Z,25.81
2018-07-07T06:59:34.653Z,26.00
2018-07-07T07:00:34.564Z,26.00
2018-07-07T07:01:34.531Z,26.28
2018-07-07T07:02:34.546Z,26.37
2018-07-07T07:03:34.491Z,26.02
2018-07-07T07:04:34.448Z,26.18
2018-07-07T07:05:34.419Z,26.16
2018-07-07T07:06:34.503Z,26.28
2018-07-07T07:07:35.049Z,26.19
2018-07-07T07:08:34.339Z,26.22
2018-07-07T07:09:34.307Z,26.33
2018-07-07T07:10:34.284Z,26.37
2018-07-07T07:11:34.255Z,26.66
2018-07-07T07:12:34.229Z,26.84
2018-07-07T07:13:34.224Z,26.99
2018-07-07T07:14:34.171Z,26.71
2018-07-07T07:15:34.143Z,26.81
2018-07-07T07:16:34.115Z,26.93
2018-07-07T07:17:34.088Z,26.77
2018-07-07T07:18:34.061Z,26.73
2018-07-07T07:19:34.039Z,27.05
2018-07-07T07:20:34.006Z,27.30
2018-07-07T07:21:33.980Z,27.32
2018-07-07T07:22:33.952Z,27.44
2018-07-07T07:23:33.927Z,27.59
2018-07-07T07:24:33.899Z,27.73
2018-07-07T07:25:33.873Z,27.77
2018-07-07T07:26:33.844Z,27.75
2018-07-07T07:27:33.818Z,27.71
2018-07-07T07:28:33.784Z,27.93
2018-07-07T07:29:33.768Z,27.93
2018-07-07T07:30:33.737Z,27.83
2018-07-07T07:31:33.711Z,28.01
2018-07-07T07:32:33.688Z,27.71
2018-07-07T07:33:33.658Z,27.71
2018-07-07T07:34:33.652Z,27.77
2018-07-07T07:35:33.605Z,27.63
2018-07-07T07:36:33.579Z,27.52
2018-07-07T07:37:33.551Z,27.52
2018-07-07T07:38:33.526Z,27.52
2018-07-07T07:39:33.498Z,27.59
2018-07-07T07:40:33.478Z,27.15
2018-07-07T07:41:33.450Z,27.10
2018-07-07T07:42:33.418Z,27.03
2018-07-07T07:43:33.393Z,27.08
2018-07-07T07:44:33.366Z,26.84
2018-07-07T07:45:33.336Z,26.88
2018-07-07T07:46:33.311Z,26.81
2018-07-07T07:47:33.285Z,26.84
2018-07-07T07:48:33.265Z,26.71
2018-07-07T07:49:33.230Z,26.65
2018-07-07T07:50:33.212Z,26.55
2018-07-07T07:51:33.178Z,26.70
2018-07-07T07:52:33.163Z,26.62
2018-07-07T07:53:33.115Z,26.66
2018-07-07T07:54:33.091Z,26.63
2018-07-07T07:55:33.070Z,26.73
2018-07-07T07:56:33.044Z,26.83
2018-07-07T07:57:33.013Z,27.14
2018-07-07T07:58:32.997Z,27.26
2018-07-07T07:59:32.962Z,27.48
2018-07-07T08:00:32.941Z,27.60
2018-07-07T08:01:32.917Z,27.67
2018-07-07T08:02:32.884Z,27.86
2018-07-07T08:03:32.855Z,27.86
2018-07-07T08:04:32.850Z,27.64
2018-07-07T08:05:32.803Z,27.75
2018-07-07T08:06:32.777Z,27.96
2018-07-07T08:07:32.750Z,27.98
2018-07-07T08:08:32.731Z,28.10
2018-07-07T08:09:32.698Z,28.26
2018-07-07T08:10:32.680Z,28.26
2018-07-07T08:11:32.647Z,28.33
2018-07-07T08:12:32.622Z,28.45
2018-07-07T08:13:32.593Z,28.51
2018-07-07T08:14:32.567Z,28.78
2018-07-07T08:15:32.543Z,28.81
2018-07-07T08:16:32.516Z,28.86
2018-07-07T08:17:32.493Z,29.02
2018-07-07T08:18:32.466Z,29.08
2018-07-07T08:19:32.439Z,29.35
2018-07-07T08:20:32.414Z,29.31
2018-07-07T08:21:32.387Z,29.41
2018-07-07T08:22:32.416Z,29.50
2018-07-07T08:23:32.338Z,29.45
2018-07-07T08:24:32.317Z,29.39
2018-07-07T08:25:32.285Z,29.56
2018-07-07T08:26:32.260Z,29.42
2018-07-07T08:27:32.237Z,29.38
2018-07-07T08:28:32.308Z,29.32
2018-07-07T08:29:32.187Z,29.49
2018-07-07T08:30:32.157Z,29.26
2018-07-07T08:31:32.135Z,29.29
2018-07-07T08:32:32.110Z,29.42
2018-07-07T08:33:32.087Z,29.61
2018-07-07T08:34:32.085Z,29.60
2018-07-07T08:35:32.036Z,29.63
2018-07-07T08:36:32.048Z,29.79
2018-07-07T08:37:31.986Z,30.00
2018-07-07T08:38:31.961Z,30.09
2018-07-07T08:39:31.937Z,30.19
2018-07-07T08:40:31.912Z,30.19
2018-07-07T08:41:31.887Z,30.28
2018-07-07T08:42:31.868Z,30.34
2018-07-07T08:43:31.849Z,30.61
2018-07-07T08:44:32.065Z,30.66
2018-07-07T08:45:31.787Z,30.78
2018-07-07T08:46:31.765Z,30.78
2018-07-07T08:47:31.738Z,30.94
2018-07-07T08:48:31.718Z,31.05
2018-07-07T08:49:31.689Z,30.99
2018-07-07T08:50:31.665Z,31.10
2018-07-07T08:51:31.640Z,31.15
2018-07-07T08:52:31.613Z,31.52
2018-07-07T08:53:31.590Z,31.62
2018-07-07T08:54:31.576Z,31.93
2018-07-07T08:55:31.538Z,31.77
2018-07-07T08:56:31.514Z,31.93
2018-07-07T08:57:31.492Z,32.12
2018-07-07T08:58:31.470Z,32.40
2018-07-07T08:59:31.445Z,32.11
2018-07-07T09:00:31.700Z,32.37
2018-07-07T09:01:31.397Z,32.63
2018-07-07T09:02:31.367Z,32.59
2018-07-07T09:03:31.350Z,32.58
2018-07-07T09:04:31.323Z,32.89
2018-07-07T09:05:31.298Z,33.01
2018-07-07T09:06:31.272Z,33.31
2018-07-07T09:07:31.246Z,33.39
2018-07-07T09:08:31.231Z,33.58
2018-07-07T09:09:31.199Z,33.46
2018-07-07T09:10:31.176Z,33.62
2018-07-07T09:11:31.152Z,33.71
2018-07-07T09:12:31.129Z,33.71
2018-07-07T09:13:31.105Z,33.95
2018-07-07T09:14:31.115Z,33.83
2018-07-07T09:15:31.055Z,33.92
2018-07-07T09:16:31.042Z,34.06
2018-07-07T09:17:31.011Z,34.08
2018-07-07T09:18:30.986Z,34.02
2018-07-07T09:19:30.964Z,34.25
2018-07-07T09:20:30.940Z,34.25
2018-07-07T09:21:30.913Z,34.38
2018-07-07T09:22:30.887Z,34.45
2018-07-07T09:23:30.876Z,34.60
2018-07-07T09:24:30.895Z,34.43
2018-07-07T09:25:30.815Z,34.61
2018-07-07T09:26:30.792Z,34.57
2018-07-07T09:27:30.773Z,34.51
2018-07-07T09:28:30.751Z,34.83
2018-07-07T09:29:30.733Z,34.86
2018-07-07T09:30:30.702Z,34.55
2018-07-07T09:31:30.696Z,34.35
2018-07-07T09:32:30.658Z,34.75
2018-07-07T09:33:30.633Z,34.77
2018-07-07T09:34:30.610Z,34.96
2018-07-07T09:35:30.583Z,34.83
2018-07-07T09:36:30.561Z,34.80
2018-07-07T09:37:30.567Z,34.40
2018-07-07T09:38:30.515Z,34.33
2018-07-07T09:39:30.983Z,34.67
2018-07-07T09:40:30.465Z,34.70
2018-07-07T09:41:30.442Z,34.75
2018-07-07T09:42:30.427Z,35.02
2018-07-07T09:43:31.024Z,34.70
2018-07-07T09:44:30.381Z,35.11
2018-07-07T09:45:30.357Z,35.29
2018-07-07T09:46:30.332Z,35.12
2018-07-07T09:47:30.303Z,35.33
2018-07-07T09:48:30.322Z,35.31
2018-07-07T09:49:30.321Z,35.53
2018-07-07T09:50:30.235Z,35.95
2018-07-07T09:51:30.208Z,36.12
2018-07-07T09:52:30.197Z,36.30
2018-07-07T09:53:30.164Z,36.58
2018-07-07T09:54:30.146Z,36.46
2018-07-07T09:55:30.120Z,36.30
2018-07-07T09:56:30.101Z,36.17
2018-07-07T09:57:30.079Z,36.58
2018-07-07T09:58:30.070Z,37.07
2018-07-07T09:59:30.028Z,37.07
2018-07-07T10:00:30.006Z,36.91
2018-07-07T10:01:29.987Z,37.17
2018-07-07T10:02:29.956Z,37.14
2018-07-07T10:03:29.937Z,37.17
2018-07-07T10:04:29.917Z,37.55
2018-07-07T10:05:29.891Z,37.59
2018-07-07T10:06:29.865Z,38.01
2018-07-07T10:07:29.987Z,37.48
2018-07-07T10:08:29.818Z,37.32
2018-07-07T10:09:29.802Z,36.91
2018-07-07T10:10:29.782Z,37.13
2018-07-07T10:11:29.750Z,37.72
2018-07-07T10:12:29.728Z,37.86
2018-07-07T10:13:29.727Z,37.70
2018-07-07T10:14:29.688Z,38.08
2018-07-07T10:15:29.671Z,38.06
2018-07-07T10:16:29.637Z,38.60
2018-07-07T10:17:29.622Z,38.87
2018-07-07T10:18:29.591Z,38.82
2018-07-07T10:19:29.574Z,38.84
2018-07-07T10:20:29.549Z,38.60
2018-07-07T10:21:29.528Z,39.36
2018-07-07T10:22:29.504Z,39.12
2018-07-07T10:23:29.480Z,38.65
2018-07-07T10:24:29.473Z,38.74
2018-07-07T10:25:29.434Z,38.31
2018-07-07T10:26:29.419Z,38.15
2018-07-07T10:27:29.395Z,38.27
2018-07-07T10:28:29.370Z,38.62
2018-07-07T10:29:29.346Z,38.17
2018-07-07T10:30:29.322Z,38.14
2018-07-07T10:31:29.332Z,38.43
2018-07-07T10:32:29.304Z,38.58
2018-07-07T10:33:29.259Z,38.48
2018-07-07T10:34:29.544Z,38.86
2018-07-07T10:35:29.216Z,39.22
2018-07-07T10:36:29.264Z,39.55
2018-07-07T10:37:29.212Z,39.56
2018-07-07T10:38:29.698Z,39.29
2018-07-07T10:39:29.156Z,38.92
2018-07-07T10:40:29.104Z,38.96
2018-07-07T10:41:29.082Z,38.69
2018-07-07T10:42:29.066Z,39.02
2018-07-07T10:43:29.040Z,38.89
2018-07-07T10:44:29.019Z,38.58
2018-07-07T10:45:29.064Z,38.68
2018-07-07T10:46:28.979Z,39.21
2018-07-07T10:47:29.119Z,39.51
2018-07-07T10:48:28.931Z,39.99
2018-07-07T10:49:28.910Z,40.35
2018-07-07T10:50:28.929Z,40.31
2018-07-07T10:51:28.867Z,40.40
2018-07-07T10:52:28.852Z,40.61
2018-07-07T10:53:28.815Z,39.90
2018-07-07T10:54:28.931Z,40.02
2018-07-07T10:55:28.971Z,39.77
2018-07-07T10:56:28.753Z,39.31
2018-07-07T10:57:28.996Z,39.38
2018-07-07T10:58:28.706Z,39.21
2018-07-07T10:59:28.697Z,39.43
2018-07-07T11:00:28.663Z,39.26
2018-07-07T11:01:28.646Z,38.89
2018-07-07T11:02:28.633Z,39.51
2018-07-07T11:03:28.596Z,40.04
2018-07-07T11:04:28.580Z,40.12
2018-07-07T11:05:28.550Z,40.69
2018-07-07T11:06:28.535Z,40.63
2018-07-07T11:07:28.532Z,40.80
2018-07-07T11:08:28.493Z,40.54
2018-07-07T11:09:28.470Z,40.80
2018-07-07T11:10:28.443Z,41.14
2018-07-07T11:11:28.424Z,40.30
2018-07-07T11:12:28.403Z,40.46
2018-07-07T11:13:28.398Z,40.77
2018-07-07T11:14:28.355Z,41.21
2018-07-07T11:15:28.342Z,40.96
2018-07-07T11:16:28.315Z,40.87
2018-07-07T11:17:28.289Z,40.72
2018-07-07T11:18:28.285Z,40.91
2018-07-07T11:19:28.294Z,40.85
2018-07-07T11:20:28.231Z,41.06
2018-07-07T11:21:28.203Z,41.50
2018-07-07T11:22:28.184Z,41.28
2018-07-07T11:23:28.165Z,41.68
2018-07-07T11:24:28.143Z,41.77
2018-07-07T11:25:28.128Z,41.53
2018-07-07T11:26:28.099Z,41.34
2018-07-07T11:27:28.077Z,41.02
2018-07-07T11:28:28.053Z,40.20
2018-07-07T11:29:28.034Z,40.30
2018-07-07T11:30:28.016Z,40.44
2018-07-07T11:31:28.007Z,39.55
2018-07-07T11:32:27.972Z,39.04
2018-07-07T11:33:27.953Z,39.33
2018-07-07T11:34:27.927Z,39.59
2018-07-07T11:35:27.907Z,39.89
2018-07-07T11:36:27.970Z,40.20
2018-07-07T11:37:27.869Z,40.31
2018-07-07T11:38:27.841Z,40.40
2018-07-07T11:39:27.822Z,40.62
2018-07-07T11:40:27.800Z,40.58
2018-07-07T11:41:27.776Z,40.61
2018-07-07T11:42:27.750Z,41.00
2018-07-07T11:43:27.732Z,41.43
2018-07-07T11:44:27.715Z,41.59
2018-07-07T11:45:27.688Z,41.75
2018-07-07T11:46:27.670Z,41.71
2018-07-07T11:47:27.663Z,42.12
2018-07-07T11:48:27.628Z,41.33
2018-07-07T11:49:27.601Z,42.25
2018-07-07T11:50:27.602Z,42.29
2018-07-07T11:51:27.579Z,42.60
2018-07-07T11:52:27.536Z,42.58
2018-07-07T11:53:27.513Z,42.47
2018-07-07T11:54:27.509Z,42.35
2018-07-07T11:55:27.475Z,42.51
2018-07-07T11:56:27.456Z,42.12
2018-07-07T11:57:27.436Z,42.17
2018-07-07T11:58:27.417Z,41.80
2018-07-07T11:59:27.392Z,41.41
2018-07-07T12:00:27.391Z,40.91
2018-07-07T12:01:27.358Z,40.84
2018-07-07T12:02:27.330Z,41.06
2018-07-07T12:03:27.444Z,41.16
2018-07-07T12:04:27.334Z,41.66
2018-07-07T12:05:27.263Z,41.71
2018-07-07T12:06:27.245Z,42.02
2018-07-07T12:07:27.224Z,41.65
2018-07-07T12:08:27.210Z,42.41
2018-07-07T12:09:27.649Z,42.55
2018-07-07T12:10:27.158Z,42.62
2018-07-07T12:11:27.217Z,42.99
2018-07-07T12:12:27.118Z,42.99
2018-07-07T12:13:27.096Z,43.24
2018-07-07T12:14:27.084Z,42.60
2018-07-07T12:15:27.056Z,41.37
2018-07-07T12:16:27.033Z,41.07
2018-07-07T12:17:27.044Z,41.15
2018-07-07T12:18:26.997Z,40.91
2018-07-07T12:19:26.967Z,40.24
2018-07-07T12:20:26.950Z,40.12
2018-07-07T12:21:26.923Z,39.99
2018-07-07T12:22:26.905Z,40.18
2018-07-07T12:23:26.886Z,39.96
2018-07-07T12:24:26.867Z,39.97
2018-07-07T12:25:26.860Z,40.35
2018-07-07T12:26:26.843Z,40.16
2018-07-07T12:27:26.797Z,39.90
2018-07-07T12:28:26.768Z,39.94
2018-07-07T12:29:26.752Z,39.60
2018-07-07T12:30:26.730Z,39.58
2018-07-07T12:31:27.226Z,39.70
2018-07-07T12:32:26.684Z,39.83
2018-07-07T12:33:26.669Z,39.49
2018-07-07T12:34:26.647Z,39.40
2018-07-07T12:35:26.619Z,39.68
2018-07-07T12:36:26.596Z,39.85
2018-07-07T12:37:26.577Z,39.49
2018-07-07T12:38:26.553Z,39.65
2018-07-07T12:39:26.527Z,40.05
2018-07-07T12:40:26.578Z,39.09
2018-07-07T12:41:26.485Z,38.52
2018-07-07T12:42:26.465Z,38.26
2018-07-07T12:43:26.462Z,38.12
2018-07-07T12:44:26.425Z,37.96
2018-07-07T12:45:26.397Z,38.31
2018-07-07T12:46:26.467Z,38.38
2018-07-07T12:47:26.384Z,38.60
2018-07-07T12:48:26.332Z,37.63
2018-07-07T12:49:26.314Z,38.05
2018-07-07T12:50:26.289Z,37.49
2018-07-07T12:51:26.261Z,37.53
2018-07-07T12:52:26.240Z,37.49